sensor_id;sensor_type;location;lat;lon;timestamp;pressure;altitude;pressure_sealevel;temperature;humidity
77303;BME280;66363;49.828;7.856;2023-03-21T00:01:57;100401.69;;;8.98;67.09
77303;BME280;66363;49.828;7.856;2023-03-21T00:04:25;100400.81;;;8.97;66.03
77303;BME280;66363;49.828;7.856;2023-03-21T00:06:52;100371.97;;;8.78;66.63
77303;BME280;66363;49.828;7.856;2023-03-21T00:09:18;100422.09;;;9.10;65.96
77303;BME280;66363;49.828;7.856;2023-03-21T00:11:49;100386.34;;;8.89;66.25
77303;BME280;66363;49.828;7.856;2023-03-21T00:14:15;100362.13;;;8.80;67.00
77303;BME280;66363;49.828;7.856;2023-03-21T00:16:41;100357.28;;;8.73;66.36
77303;BME280;66363;49.828;7.856;2023-03-21T00:19:08;100357.31;;;8.87;66.06
77303;BME280;66363;49.828;7.856;2023-03-21T00:21:36;100404.34;;;9.12;66.27
77303;BME280;66363;49.828;7.856;2023-03-21T00:24:02;100412.25;;;8.98;67.47
77303;BME280;66363;49.828;7.856;2023-03-21T00:26:32;100365.31;;;8.71;67.69
77303;BME280;66363;49.828;7.856;2023-03-21T00:28:58;100405.44;;;8.94;67.73
77303;BME280;66363;49.828;7.856;2023-03-21T00:31:26;100380.84;;;8.77;67.44
77303;BME280;66363;49.828;7.856;2023-03-21T00:33:52;100353.75;;;8.58;68.08
77303;BME280;66363;49.828;7.856;2023-03-21T00:36:18;100354.56;;;8.74;66.99
77303;BME280;66363;49.828;7.856;2023-03-21T00:38:48;100350.66;;;8.66;67.00
77303;BME280;66363;49.828;7.856;2023-03-21T00:41:14;100373.44;;;8.68;68.28
77303;BME280;66363;49.828;7.856;2023-03-21T00:43:40;100347.72;;;8.56;69.46
77303;BME280;66363;49.828;7.856;2023-03-21T00:46:05;100352.25;;;8.54;68.06
77303;BME280;66363;49.828;7.856;2023-03-21T00:48:37;100370.88;;;8.67;69.27
77303;BME280;66363;49.828;7.856;2023-03-21T00:51:12;100383.84;;;8.71;68.75
77303;BME280;66363;49.828;7.856;2023-03-21T00:53:39;100359.16;;;8.57;68.72
77303;BME280;66363;49.828;7.856;2023-03-21T00:56:08;100375.22;;;8.68;68.55
77303;BME280;66363;49.828;7.856;2023-03-21T00:58:34;100379.31;;;8.73;68.16
77303;BME280;66363;49.828;7.856;2023-03-21T01:01:03;100375.41;;;8.65;69.20
77303;BME280;66363;49.828;7.856;2023-03-21T01:03:32;100375.56;;;8.62;69.27
77303;BME280;66363;49.828;7.856;2023-03-21T01:05:58;100323.84;;;8.42;70.21
77303;BME280;66363;49.828;7.856;2023-03-21T01:08:25;100365.75;;;8.64;70.87
77303;BME280;66363;49.828;7.856;2023-03-21T01:10:54;100325.91;;;8.37;71.63
77303;BME280;66363;49.828;7.856;2023-03-21T01:13:27;100319.19;;;8.31;71.15
77303;BME280;66363;49.828;7.856;2023-03-21T01:15:57;100370.38;;;8.60;71.84
77303;BME280;66363;49.828;7.856;2023-03-21T01:18:28;100347.91;;;8.37;72.03
77303;BME280;66363;49.828;7.856;2023-03-21T01:20:56;100364.63;;;8.54;71.36
77303;BME280;66363;49.828;7.856;2023-03-21T01:23:22;100358.47;;;8.53;71.70
77303;BME280;66363;49.828;7.856;2023-03-21T01:25:50;100339.72;;;8.42;70.05
77303;BME280;66363;49.828;7.856;2023-03-21T01:28:17;100317.47;;;8.30;71.19
77303;BME280;66363;49.828;7.856;2023-03-21T01:30:48;100362.75;;;8.56;71.97
77303;BME280;66363;49.828;7.856;2023-03-21T01:33:15;100344.06;;;8.43;70.84
77303;BME280;66363;49.828;7.856;2023-03-21T01:35:41;100355.25;;;8.48;70.92
77303;BME280;66363;49.828;7.856;2023-03-21T01:38:07;100354.31;;;8.49;71.54
77303;BME280;66363;49.828;7.856;2023-03-21T01:40:33;100313.38;;;8.25;71.06
77303;BME280;66363;49.828;7.856;2023-03-21T01:42:59;100308.19;;;8.23;70.75
77303;BME280;66363;49.828;7.856;2023-03-21T01:48:33;100329.41;;;8.37;69.96
77303;BME280;66363;49.828;7.856;2023-03-21T01:51:04;100306.75;;;8.17;71.91
77303;BME280;66363;49.828;7.856;2023-03-21T01:53:35;100312.88;;;8.18;72.46
77303;BME280;66363;49.828;7.856;2023-03-21T01:56:10;100319.88;;;8.19;72.51
77303;BME280;66363;49.828;7.856;2023-03-21T01:58:37;100322.34;;;8.22;73.10
77303;BME280;66363;49.828;7.856;2023-03-21T02:01:05;100303.78;;;8.08;71.65
77303;BME280;66363;49.828;7.856;2023-03-21T02:03:37;100298.56;;;8.06;71.56
77303;BME280;66363;49.828;7.856;2023-03-21T02:06:08;100295.94;;;8.06;71.30
77303;BME280;66363;49.828;7.856;2023-03-21T02:08:35;100335.56;;;8.38;71.91
77303;BME280;66363;49.828;7.856;2023-03-21T02:11:05;100336.91;;;8.45;71.38
77303;BME280;66363;49.828;7.856;2023-03-21T02:13:34;100306.56;;;8.36;69.67
77303;BME280;66363;49.828;7.856;2023-03-21T02:16:05;100281.16;;;8.18;70.03
77303;BME280;66363;49.828;7.856;2023-03-21T02:18:38;100278.34;;;8.21;70.04
77303;BME280;66363;49.828;7.856;2023-03-21T02:21:35;100280.81;;;8.24;72.70
77303;BME280;66363;49.828;7.856;2023-03-21T02:24:36;100315.84;;;8.43;72.88
77303;BME280;66363;49.828;7.856;2023-03-21T02:27:11;100290.69;;;8.36;69.51
77303;BME280;66363;49.828;7.856;2023-03-21T02:30:19;;;;8.43;
77303;BME280;66363;49.828;7.856;2023-03-21T02:33:00;100256.19;;;8.08;70.86
77303;BME280;66363;49.828;7.856;2023-03-21T02:35:53;100296.50;;;8.27;72.67
77303;BME280;66363;49.828;7.856;2023-03-21T02:38:27;100248.16;;;7.95;73.00
77303;BME280;66363;49.828;7.856;2023-03-21T02:41:03;100248.91;;;7.97;72.39
77303;BME280;66363;49.828;7.856;2023-03-21T02:43:38;100253.25;;;7.98;72.04
77303;BME280;66363;49.828;7.856;2023-03-21T02:46:14;100281.50;;;8.12;72.16
77303;BME280;66363;49.828;7.856;2023-03-21T02:48:48;100246.84;;;8.02;70.68
77303;BME280;66363;49.828;7.856;2023-03-21T02:51:22;100267.78;;;8.21;70.53
77303;BME280;66363;49.828;7.856;2023-03-21T02:53:55;100251.22;;;8.03;71.39
77303;BME280;66363;49.828;7.856;2023-03-21T02:56:24;100241.88;;;8.12;69.77
77303;BME280;66363;49.828;7.856;2023-03-21T02:58:51;100261.09;;;8.30;69.40
77303;BME280;66363;49.828;7.856;2023-03-21T03:01:20;100279.75;;;8.42;68.85
77303;BME280;66363;49.828;7.856;2023-03-21T03:03:46;100290.91;;;8.47;69.86
77303;BME280;66363;49.828;7.856;2023-03-21T03:06:15;100263.66;;;8.31;71.39
77303;BME280;66363;49.828;7.856;2023-03-21T03:08:57;100268.81;;;8.48;69.10
77303;BME280;66363;49.828;7.856;2023-03-21T03:11:28;100260.03;;;8.48;68.64
77303;BME280;66363;49.828;7.856;2023-03-21T03:14:10;100280.94;;;8.67;67.75
77303;BME280;66363;49.828;7.856;2023-03-21T03:16:45;100233.94;;;8.42;67.79
77303;BME280;66363;49.828;7.856;2023-03-21T03:19:21;100249.38;;;8.49;68.28
77303;BME280;66363;49.828;7.856;2023-03-21T03:21:56;100237.13;;;8.33;70.33
77303;BME280;66363;49.828;7.856;2023-03-21T03:24:32;100279.50;;;8.47;70.80
77303;BME280;66363;49.828;7.856;2023-03-21T03:27:01;100230.09;;;8.17;70.55
77303;BME280;66363;49.828;7.856;2023-03-21T03:29:33;100270.88;;;8.43;70.86
77303;BME280;66363;49.828;7.856;2023-03-21T03:32:08;100250.63;;;8.28;72.55
77303;BME280;66363;49.828;7.856;2023-03-21T03:34:37;100220.56;;;8.15;72.05
77303;BME280;66363;49.828;7.856;2023-03-21T03:37:07;100249.59;;;8.31;73.13
77303;BME280;66363;49.828;7.856;2023-03-21T03:39:40;100253.69;;;8.21;73.62
77303;BME280;66363;49.828;7.856;2023-03-21T03:42:16;100250.91;;;8.08;73.02
77303;BME280;66363;49.828;7.856;2023-03-21T03:44:45;100239.53;;;7.92;72.89
77303;BME280;66363;49.828;7.856;2023-03-21T03:47:19;100243.03;;;7.92;72.86
77303;BME280;66363;49.828;7.856;2023-03-21T03:49:51;100275.69;;;8.21;71.36
77303;BME280;66363;49.828;7.856;2023-03-21T03:52:22;100257.63;;;8.13;71.26
77303;BME280;66363;49.828;7.856;2023-03-21T03:54:53;100243.41;;;8.16;70.78
77303;BME280;66363;49.828;7.856;2023-03-21T03:57:32;100233.59;;;8.18;70.52
77303;BME280;66363;49.828;7.856;2023-03-21T03:59:59;100240.00;;;8.14;70.76
77303;BME280;66363;49.828;7.856;2023-03-21T04:02:28;100288.03;;;8.36;73.26
77303;BME280;66363;49.828;7.856;2023-03-21T04:04:57;100237.78;;;8.06;73.29
77303;BME280;66363;49.828;7.856;2023-03-21T04:07:25;100238.44;;;7.96;73.52
77303;BME280;66363;49.828;7.856;2023-03-21T04:09:57;100238.94;;;7.87;73.26
77303;BME280;66363;49.828;7.856;2023-03-21T04:12:28;100271.66;;;8.00;73.41
77303;BME280;66363;49.828;7.856;2023-03-21T04:15:00;100247.50;;;7.76;74.44
77303;BME280;66363;49.828;7.856;2023-03-21T04:17:28;100255.16;;;7.80;74.25
77303;BME280;66363;49.828;7.856;2023-03-21T04:20:02;100247.50;;;7.76;73.81
77303;BME280;66363;49.828;7.856;2023-03-21T04:22:28;100239.66;;;7.74;73.65
77303;BME280;66363;49.828;7.856;2023-03-21T04:24:56;100290.00;;;8.03;74.59
77303;BME280;66363;49.828;7.856;2023-03-21T04:27:22;100235.16;;;7.76;72.79
77303;BME280;66363;49.828;7.856;2023-03-21T04:30:02;100276.06;;;8.15;74.07
77303;BME280;66363;49.828;7.856;2023-03-21T04:32:31;100256.28;;;8.06;72.50
77303;BME280;66363;49.828;7.856;2023-03-21T04:34:57;100274.00;;;8.20;72.87
77303;BME280;66363;49.828;7.856;2023-03-21T04:37:23;100230.09;;;7.88;73.51
77303;BME280;66363;49.828;7.856;2023-03-21T04:39:49;100251.38;;;8.00;72.50
77303;BME280;66363;49.828;7.856;2023-03-21T04:42:19;100236.72;;;7.95;74.17
77303;BME280;66363;49.828;7.856;2023-03-21T04:44:54;100271.19;;;8.23;73.82
77303;BME280;66363;49.828;7.856;2023-03-21T04:47:32;100252.00;;;8.20;73.35
77303;BME280;66363;49.828;7.856;2023-03-21T04:50:06;100248.75;;;8.30;72.67
77303;BME280;66363;49.828;7.856;2023-03-21T04:52:32;100216.25;;;7.98;70.89
77303;BME280;66363;49.828;7.856;2023-03-21T04:54:58;100241.03;;;8.11;70.76
77303;BME280;66363;49.828;7.856;2023-03-21T04:57:25;100213.44;;;8.01;72.19
77303;BME280;66363;49.828;7.856;2023-03-21T04:59:51;100215.44;;;8.12;71.25
77303;BME280;66363;49.828;7.856;2023-03-21T05:02:17;100229.91;;;8.21;72.11
77303;BME280;66363;49.828;7.856;2023-03-21T05:04:43;100218.56;;;8.04;71.34
77303;BME280;66363;49.828;7.856;2023-03-21T05:07:09;100237.75;;;8.22;71.60
77303;BME280;66363;49.828;7.856;2023-03-21T05:09:35;100215.06;;;8.04;73.67
77303;BME280;66363;49.828;7.856;2023-03-21T05:12:01;100222.91;;;8.05;71.47
77303;BME280;66363;49.828;7.856;2023-03-21T05:14:31;100261.16;;;8.44;71.28
77303;BME280;66363;49.828;7.856;2023-03-21T05:16:59;100221.41;;;8.15;71.12
77303;BME280;66363;49.828;7.856;2023-03-21T05:19:26;100210.16;;;8.12;72.35
77303;BME280;66363;49.828;7.856;2023-03-21T05:21:54;100210.31;;;8.09;70.22
77303;BME280;66363;49.828;7.856;2023-03-21T05:24:21;100207.25;;;8.16;69.00
77303;BME280;66363;49.828;7.856;2023-03-21T05:26:52;100211.69;;;8.16;71.16
77303;BME280;66363;49.828;7.856;2023-03-21T05:29:18;100219.44;;;8.19;70.13
77303;BME280;66363;49.828;7.856;2023-03-21T05:31:46;100217.63;;;8.20;71.06
77303;BME280;66363;49.828;7.856;2023-03-21T05:34:12;100248.19;;;8.39;69.50
77303;BME280;66363;49.828;7.856;2023-03-21T05:36:38;100245.06;;;8.33;69.62
77303;BME280;66363;49.828;7.856;2023-03-21T05:39:05;100208.44;;;8.11;71.82
77303;BME280;66363;49.828;7.856;2023-03-21T05:41:30;100258.78;;;8.39;72.52
77303;BME280;66363;49.828;7.856;2023-03-21T05:43:57;100220.19;;;8.21;71.95
77303;BME280;66363;49.828;7.856;2023-03-21T05:46:22;100211.50;;;8.19;71.49
77303;BME280;66363;49.828;7.856;2023-03-21T05:48:50;100240.81;;;8.30;71.66
77303;BME280;66363;49.828;7.856;2023-03-21T05:51:17;100265.06;;;8.53;72.27
77303;BME280;66363;49.828;7.856;2023-03-21T05:53:42;100241.47;;;8.34;70.12
77303;BME280;66363;49.828;7.856;2023-03-21T05:56:09;100257.22;;;8.51;68.74
77303;BME280;66363;49.828;7.856;2023-03-21T05:58:34;100259.63;;;8.40;69.18
77303;BME280;66363;49.828;7.856;2023-03-21T06:01:00;100253.50;;;8.39;68.52
77303;BME280;66363;49.828;7.856;2023-03-21T06:03:25;100253.13;;;8.45;68.20
77303;BME280;66363;49.828;7.856;2023-03-21T06:05:52;100266.53;;;8.42;68.22
77303;BME280;66363;49.828;7.856;2023-03-21T06:08:18;100248.63;;;8.32;69.47
77303;BME280;66363;49.828;7.856;2023-03-21T06:10:44;100259.41;;;8.29;70.47
77303;BME280;66363;49.828;7.856;2023-03-21T06:13:09;100272.34;;;8.33;68.85
77303;BME280;66363;49.828;7.856;2023-03-21T06:15:35;100265.81;;;8.25;70.16
77303;BME280;66363;49.828;7.856;2023-03-21T06:18:00;100267.56;;;8.40;71.40
77303;BME280;66363;49.828;7.856;2023-03-21T06:20:26;100258.78;;;8.39;70.87
77303;BME280;66363;49.828;7.856;2023-03-21T06:22:53;100265.91;;;8.53;72.01
77303;BME280;66363;49.828;7.856;2023-03-21T06:25:19;100278.19;;;8.68;70.80
77303;BME280;66363;49.828;7.856;2023-03-21T06:27:44;100268.19;;;8.73;69.12
77303;BME280;66363;49.828;7.856;2023-03-21T06:30:11;100275.00;;;8.77;68.51
77303;BME280;66363;49.828;7.856;2023-03-21T06:32:37;100273.22;;;8.92;68.36
77303;BME280;66363;49.828;7.856;2023-03-21T06:35:03;100270.56;;;8.92;67.35
77303;BME280;66363;49.828;7.856;2023-03-21T06:37:29;100281.63;;;8.99;67.90
77303;BME280;66363;49.828;7.856;2023-03-21T06:39:56;100277.75;;;9.04;67.43
77303;BME280;66363;49.828;7.856;2023-03-21T06:42:21;100276.63;;;9.08;67.67
77303;BME280;66363;49.828;7.856;2023-03-21T06:44:48;100277.25;;;9.12;67.52
77303;BME280;66363;49.828;7.856;2023-03-21T06:47:14;100275.97;;;9.05;68.51
77303;BME280;66363;49.828;7.856;2023-03-21T06:49:39;100275.28;;;9.01;67.93
77303;BME280;66363;49.828;7.856;2023-03-21T06:52:05;100264.72;;;9.01;67.89
77303;BME280;66363;49.828;7.856;2023-03-21T06:54:31;100273.31;;;9.05;68.03
77303;BME280;66363;49.828;7.856;2023-03-21T06:56:58;100267.06;;;9.06;68.07
77303;BME280;66363;49.828;7.856;2023-03-21T06:59:24;100264.53;;;9.04;nan
77303;BME280;66363;49.828;7.856;2023-03-21T07:01:49;100271.22;;;9.10;67.16
77303;BME280;66363;49.828;7.856;2023-03-21T07:04:15;100261.38;;;9.12;67.11
77303;BME280;66363;49.828;7.856;2023-03-21T07:06:41;100268.09;;;9.17;67.96
77303;BME280;66363;49.828;7.856;2023-03-21T07:09:07;100273.38;;;9.17;67.04
77303;BME280;66363;49.828;7.856;2023-03-21T07:11:34;100276.13;;;9.16;66.25
77303;BME280;66363;49.828;7.856;2023-03-21T07:14:02;100272.63;;;9.15;66.43
77303;BME280;66363;49.828;7.856;2023-03-21T07:16:27;100273.28;;;9.19;66.28
77303;BME280;66363;49.828;7.856;2023-03-21T07:18:53;100278.59;;;9.19;65.87
77303;BME280;66363;49.828;7.856;2023-03-21T07:21:19;100278.13;;;9.27;65.24
77303;BME280;66363;49.828;7.856;2023-03-21T07:23:45;100285.78;;;9.31;66.33
77303;BME280;66363;49.828;7.856;2023-03-21T07:26:10;100273.75;;;9.40;66.17
77303;BME280;66363;49.828;7.856;2023-03-21T07:28:36;100280.53;;;9.44;65.17
77303;BME280;66363;49.828;7.856;2023-03-21T07:31:05;100277.22;;;9.55;63.83
77303;BME280;66363;49.828;7.856;2023-03-21T07:33:32;100273.06;;;9.50;65.52
77303;BME280;66363;49.828;7.856;2023-03-21T07:35:58;100275.25;;;9.58;64.59
77303;BME280;66363;49.828;7.856;2023-03-21T07:38:25;100280.22;;;9.63;64.94
77303;BME280;66363;49.828;7.856;2023-03-21T07:40:51;100270.19;;;9.68;64.40
77303;BME280;66363;49.828;7.856;2023-03-21T07:43:17;100261.66;;;9.63;64.47
77303;BME280;66363;49.828;7.856;2023-03-21T07:45:43;100272.44;;;9.74;63.65
77303;BME280;66363;49.828;7.856;2023-03-21T07:48:10;100266.56;;;9.69;64.25
77303;BME280;66363;49.828;7.856;2023-03-21T07:50:37;100257.88;;;9.67;64.03
77303;BME280;66363;49.828;7.856;2023-03-21T07:53:02;100257.22;;;9.63;63.95
77303;BME280;66363;49.828;7.856;2023-03-21T07:55:28;100277.69;;;9.61;64.40
77303;BME280;66363;49.828;7.856;2023-03-21T07:57:53;100275.53;;;9.53;63.97
77303;BME280;66363;49.828;7.856;2023-03-21T08:00:20;100279.06;;;9.67;64.01
77303;BME280;66363;49.828;7.856;2023-03-21T08:02:46;100272.06;;;9.66;64.35
77303;BME280;66363;49.828;7.856;2023-03-21T08:05:13;100272.53;;;9.72;64.13
77303;BME280;66363;49.828;7.856;2023-03-21T08:07:38;100267.50;;;9.82;63.59
77303;BME280;66363;49.828;7.856;2023-03-21T08:10:05;100277.09;;;9.97;63.18
77303;BME280;66363;49.828;7.856;2023-03-21T08:12:30;100271.69;;;9.99;63.75
77303;BME280;66363;49.828;7.856;2023-03-21T08:14:56;100274.69;;;10.07;62.18
77303;BME280;66363;49.828;7.856;2023-03-21T08:17:22;100289.50;;;10.24;62.75
77303;BME280;66363;49.828;7.856;2023-03-21T08:19:47;100281.38;;;10.39;62.24
77303;BME280;66363;49.828;7.856;2023-03-21T08:22:14;100273.00;;;10.33;61.69
77303;BME280;66363;49.828;7.856;2023-03-21T08:24:40;100287.97;;;10.46;61.47
77303;BME280;66363;49.828;7.856;2023-03-21T08:27:06;100280.53;;;10.39;61.05
77303;BME280;66363;49.828;7.856;2023-03-21T08:29:31;100282.66;;;10.34;61.42
77303;BME280;66363;49.828;7.856;2023-03-21T08:31:57;100283.81;;;10.30;61.66
77303;BME280;66363;49.828;7.856;2023-03-21T08:34:24;100281.78;;;10.33;61.50
77303;BME280;66363;49.828;7.856;2023-03-21T08:36:53;100280.09;;;10.45;61.46
77303;BME280;66363;49.828;7.856;2023-03-21T08:39:26;100282.94;;;10.29;61.08
77303;BME280;66363;49.828;7.856;2023-03-21T08:41:54;100271.59;;;10.27;61.38
77303;BME280;66363;49.828;7.856;2023-03-21T08:44:22;100270.53;;;10.30;62.42
77303;BME280;66363;49.828;7.856;2023-03-21T08:46:52;100290.41;;;10.49;60.92
77303;BME280;66363;49.828;7.856;2023-03-21T08:49:23;100269.59;;;10.31;62.92
77303;BME280;66363;49.828;7.856;2023-03-21T08:52:00;100267.88;;;10.42;61.11
77303;BME280;66363;49.828;7.856;2023-03-21T08:54:27;100280.34;;;10.54;60.80
77303;BME280;66363;49.828;7.856;2023-03-21T08:56:52;100286.28;;;10.58;61.29
77303;BME280;66363;49.828;7.856;2023-03-21T08:59:19;100291.91;;;10.66;61.13
77303;BME280;66363;49.828;7.856;2023-03-21T09:01:45;100289.25;;;10.66;61.22
77303;BME280;66363;49.828;7.856;2023-03-21T09:04:11;100288.19;;;10.69;61.53
77303;BME280;66363;49.828;7.856;2023-03-21T09:06:37;100293.59;;;10.67;59.68
77303;BME280;66363;49.828;7.856;2023-03-21T09:09:03;100280.22;;;10.69;61.29
77303;BME280;66363;49.828;7.856;2023-03-21T09:11:30;100285.03;;;10.76;62.76
77303;BME280;66363;49.828;7.856;2023-03-21T09:13:55;100290.66;;;10.72;61.68
77303;BME280;66363;49.828;7.856;2023-03-21T09:16:21;100289.47;;;10.76;63.07
77303;BME280;66363;49.828;7.856;2023-03-21T09:18:47;100285.88;;;10.77;63.33
77303;BME280;66363;49.828;7.856;2023-03-21T09:21:13;100288.22;;;10.81;62.28
77303;BME280;66363;49.828;7.856;2023-03-21T09:23:39;100281.53;;;11.01;62.35
77303;BME280;66363;49.828;7.856;2023-03-21T09:26:05;100286.47;;;11.18;61.51
77303;BME280;66363;49.828;7.856;2023-03-21T09:28:32;100281.28;;;11.30;61.42
77303;BME280;66363;49.828;7.856;2023-03-21T09:30:58;100281.13;;;11.44;58.97
77303;BME280;66363;49.828;7.856;2023-03-21T09:33:24;100284.25;;;11.38;61.44
77303;BME280;66363;49.828;7.856;2023-03-21T09:35:49;100287.13;;;11.35;61.82
77303;BME280;66363;49.828;7.856;2023-03-21T09:38:15;100281.97;;;11.44;59.46
77303;BME280;66363;49.828;7.856;2023-03-21T09:40:51;100287.28;;;11.44;60.76
77303;BME280;66363;49.828;7.856;2023-03-21T09:43:31;100291.47;;;11.36;60.13
77303;BME280;66363;49.828;7.856;2023-03-21T09:46:06;100274.69;;;11.35;62.38
77303;BME280;66363;49.828;7.856;2023-03-21T09:48:39;100288.88;;;11.47;62.33
77303;BME280;66363;49.828;7.856;2023-03-21T09:51:09;100292.28;;;11.49;60.81
77303;BME280;66363;49.828;7.856;2023-03-21T09:53:41;100280.41;;;11.42;61.03
77303;BME280;66363;49.828;7.856;2023-03-21T09:56:10;100277.44;;;11.34;62.15
77303;BME280;66363;49.828;7.856;2023-03-21T09:58:40;100277.66;;;11.31;60.86
77303;BME280;66363;49.828;7.856;2023-03-21T10:01:13;100290.84;;;11.19;63.58
77303;BME280;66363;49.828;7.856;2023-03-21T10:03:40;100283.63;;;11.21;64.39
77303;BME280;66363;49.828;7.856;2023-03-21T10:06:11;100270.69;;;11.17;64.26
77303;BME280;66363;49.828;7.856;2023-03-21T10:08:39;100273.00;;;11.21;62.92
77303;BME280;66363;49.828;7.856;2023-03-21T10:11:12;100272.78;;;11.25;64.40
77303;BME280;66363;49.828;7.856;2023-03-21T10:13:48;100275.44;;;11.25;65.85
77303;BME280;66363;49.828;7.856;2023-03-21T10:16:20;100233.81;;;11.12;65.54
77303;BME280;66363;49.828;7.856;2023-03-21T10:18:58;100277.63;;;11.43;64.44
77303;BME280;66363;49.828;7.856;2023-03-21T10:21:28;100274.69;;;11.22;64.83
77303;BME280;66363;49.828;7.856;2023-03-21T10:24:01;100237.31;;;11.13;66.61
77303;BME280;66363;49.828;7.856;2023-03-21T10:26:28;100230.63;;;11.07;66.06
77303;BME280;66363;49.828;7.856;2023-03-21T10:29:03;100241.00;;;11.36;65.16
77303;BME280;66363;49.828;7.856;2023-03-21T10:31:30;100260.38;;;11.62;63.91
77303;BME280;66363;49.828;7.856;2023-03-21T10:34:01;100260.63;;;11.70;65.82
77303;BME280;66363;49.828;7.856;2023-03-21T10:36:28;100266.28;;;12.02;64.89
77303;BME280;66363;49.828;7.856;2023-03-21T10:38:59;100248.47;;;12.15;62.54
77303;BME280;66363;49.828;7.856;2023-03-21T10:41:26;100248.38;;;12.28;64.46
77303;BME280;66363;49.828;7.856;2023-03-21T10:44:10;100254.59;;;12.39;65.17
77303;BME280;66363;49.828;7.856;2023-03-21T10:46:37;100239.69;;;12.37;64.42
77303;BME280;66363;49.828;7.856;2023-03-21T10:49:06;100249.19;;;12.63;62.75
77303;BME280;66363;49.828;7.856;2023-03-21T10:51:35;100251.00;;;12.74;63.56
77303;BME280;66363;49.828;7.856;2023-03-21T10:54:05;100256.16;;;12.99;62.56
77303;BME280;66363;49.828;7.856;2023-03-21T10:56:35;100247.16;;;12.89;61.27
77303;BME280;66363;49.828;7.856;2023-03-21T10:59:03;100248.88;;;13.12;64.20
77303;BME280;66363;49.828;7.856;2023-03-21T11:01:34;100254.84;;;13.16;59.99
77303;BME280;66363;49.828;7.856;2023-03-21T11:04:06;100256.00;;;13.12;59.90
77303;BME280;66363;49.828;7.856;2023-03-21T11:06:37;100253.13;;;13.15;61.51
77303;BME280;66363;49.828;7.856;2023-03-21T11:09:06;100245.72;;;13.07;60.88
77303;BME280;66363;49.828;7.856;2023-03-21T11:11:34;100243.41;;;12.91;62.12
77303;BME280;66363;49.828;7.856;2023-03-21T11:14:02;100245.44;;;12.66;63.12
77303;BME280;66363;49.828;7.856;2023-03-21T11:16:31;100236.22;;;12.58;62.68
77303;BME280;66363;49.828;7.856;2023-03-21T11:19:10;100249.50;;;12.47;63.49
77303;BME280;66363;49.828;7.856;2023-03-21T11:21:36;100246.03;;;12.47;63.97
77303;BME280;66363;49.828;7.856;2023-03-21T11:24:03;100246.03;;;12.58;62.19
77303;BME280;66363;49.828;7.856;2023-03-21T11:26:32;100244.69;;;12.52;64.35
77303;BME280;66363;49.828;7.856;2023-03-21T11:28:59;100250.50;;;12.46;63.27
77303;BME280;66363;49.828;7.856;2023-03-21T11:31:36;100240.22;;;12.53;66.24
77303;BME280;66363;49.828;7.856;2023-03-21T11:34:06;100229.78;;;12.50;65.26
77303;BME280;66363;49.828;7.856;2023-03-21T11:36:34;100241.06;;;12.42;64.73
77303;BME280;66363;49.828;7.856;2023-03-21T11:39:13;100233.88;;;12.32;67.30
77303;BME280;66363;49.828;7.856;2023-03-21T11:41:40;100236.53;;;12.32;68.77
77303;BME280;66363;49.828;7.856;2023-03-21T11:44:23;100228.44;;;12.33;71.21
77303;BME280;66363;49.828;7.856;2023-03-21T11:46:49;100228.47;;;12.44;68.01
77303;BME280;66363;49.828;7.856;2023-03-21T11:49:16;100223.63;;;12.38;67.73
77303;BME280;66363;49.828;7.856;2023-03-21T11:51:47;100224.47;;;12.50;70.35
77303;BME280;66363;49.828;7.856;2023-03-21T11:54:20;100224.00;;;12.56;70.93
77303;BME280;66363;49.828;7.856;2023-03-21T11:56:50;100221.72;;;12.63;71.20
77303;BME280;66363;49.828;7.856;2023-03-21T11:59:28;100217.34;;;12.50;69.89
77303;BME280;66363;49.828;7.856;2023-03-21T12:02:06;100225.19;;;12.52;72.00
77303;BME280;66363;49.828;7.856;2023-03-21T12:04:41;100215.66;;;12.61;69.32
77303;BME280;66363;49.828;7.856;2023-03-21T12:07:22;100211.19;;;12.61;66.89
77303;BME280;66363;49.828;7.856;2023-03-21T12:09:56;100205.50;;;12.54;66.43
77303;BME280;66363;49.828;7.856;2023-03-21T12:12:34;100204.03;;;12.50;68.74
77303;BME280;66363;49.828;7.856;2023-03-21T12:15:08;100205.00;;;12.49;66.90
77303;BME280;66363;49.828;7.856;2023-03-21T12:17:43;100190.34;;;12.33;69.52
77303;BME280;66363;49.828;7.856;2023-03-21T12:20:28;100195.47;;;12.12;69.73
77303;BME280;66363;49.828;7.856;2023-03-21T12:23:12;100183.84;;;12.02;68.41
77303;BME280;66363;49.828;7.856;2023-03-21T12:25:44;100183.38;;;12.08;68.92
77303;BME280;66363;49.828;7.856;2023-03-21T12:28:23;100180.56;;;11.98;66.61
77303;BME280;66363;49.828;7.856;2023-03-21T12:31:01;100170.41;;;11.92;69.52
77303;BME280;66363;49.828;7.856;2023-03-21T12:33:41;100174.88;;;11.92;66.96
77303;BME280;66363;49.828;7.856;2023-03-21T12:36:22;100184.53;;;11.93;66.11
77303;BME280;66363;49.828;7.856;2023-03-21T12:38:54;100167.47;;;11.84;66.38
77303;BME280;66363;49.828;7.856;2023-03-21T12:41:23;100166.50;;;11.85;67.50
77303;BME280;66363;49.828;7.856;2023-03-21T12:43:53;100157.09;;;11.92;68.22
77303;BME280;66363;49.828;7.856;2023-03-21T12:46:23;100156.72;;;11.97;69.03
77303;BME280;66363;49.828;7.856;2023-03-21T12:48:52;100159.16;;;11.88;68.05
77303;BME280;66363;49.828;7.856;2023-03-21T12:51:26;100146.94;;;11.62;69.71
77303;BME280;66363;49.828;7.856;2023-03-21T12:53:59;100153.81;;;11.65;69.54
77303;BME280;66363;49.828;7.856;2023-03-21T12:56:30;100145.16;;;11.50;70.67
77303;BME280;66363;49.828;7.856;2023-03-21T12:59:02;100140.81;;;11.49;69.41
77303;BME280;66363;49.828;7.856;2023-03-21T13:01:31;100147.31;;;11.45;71.12
77303;BME280;66363;49.828;7.856;2023-03-21T13:04:13;100142.09;;;11.43;71.98
77303;BME280;66363;49.828;7.856;2023-03-21T13:06:44;100149.47;;;11.40;71.71
77303;BME280;66363;49.828;7.856;2023-03-21T13:09:15;100135.47;;;11.38;72.85
77303;BME280;66363;49.828;7.856;2023-03-21T13:11:44;100140.19;;;11.45;73.27
77303;BME280;66363;49.828;7.856;2023-03-21T13:14:14;100132.59;;;11.41;73.12